Terminal Aerodrome Forecast
Issued by NWS

Home | Current Version | Previous Version | Text Only | Print | Product List | Glossary On
Versions: 1 2 3 4 5 6 7 8 9 10 11 12 13 14
000
FTUS45 KRIW 231700
TAFPNA
TAF
KPNA 231720Z 2318/2418 29022G32KT P6SM SCT060
     FM240200 26011KT P6SM BKN090
     FM240500 VRB06KT P6SM SKC
     FM241600 22009KT P6SM FEW050 BKN150
      AMD LTD TO CLD VIS AND WIND=

USA.gov is the U.S. government's official web portal to all federal, state and local government web resources and services.